sensor_id;sensor_type;location;lat;lon;timestamp;P1;durP1;ratioP1;P2;durP2;ratioP2
42602;SDS011;28233;55.748;48.752;2022-10-23T00:01:13;5.95;;;2.00;;
42602;SDS011;28233;55.748;48.752;2022-10-23T00:03:17;3.33;;;2.03;;
42602;SDS011;28233;55.748;48.752;2022-10-23T00:05:20;4.80;;;2.03;;
42602;SDS011;28233;55.748;48.752;2022-10-23T00:07:24;5.00;;;1.75;;
42602;SDS011;28233;55.748;48.752;2022-10-23T00:09:27;4.97;;;1.88;;
42602;SDS011;28233;55.748;48.752;2022-10-23T00:11:29;8.65;;;2.38;;
42602;SDS011;28233;55.748;48.752;2022-10-23T00:13:33;3.85;;;1.88;;
42602;SDS011;28233;55.748;48.752;2022-10-23T00:15:36;2.88;;;1.80;;
42602;SDS011;28233;55.748;48.752;2022-10-23T00:17:39;6.75;;;2.25;;
42602;SDS011;28233;55.748;48.752;2022-10-23T00:19:42;4.85;;;1.83;;
42602;SDS011;28233;55.748;48.752;2022-10-23T00:21:45;3.35;;;1.90;;
42602;SDS011;28233;55.748;48.752;2022-10-23T00:23:48;6.90;;;2.63;;
42602;SDS011;28233;55.748;48.752;2022-10-23T00:25:50;8.57;;;2.88;;
42602;SDS011;28233;55.748;48.752;2022-10-23T00:27:53;5.93;;;2.30;;
42602;SDS011;28233;55.748;48.752;2022-10-23T00:29:56;7.65;;;1.73;;
42602;SDS011;28233;55.748;48.752;2022-10-23T00:31:58;4.82;;;1.80;;
42602;SDS011;28233;55.748;48.752;2022-10-23T00:34:01;7.32;;;2.83;;
42602;SDS011;28233;55.748;48.752;2022-10-23T00:36:06;7.32;;;1.90;;
42602;SDS011;28233;55.748;48.752;2022-10-23T00:38:10;5.07;;;2.53;;
42602;SDS011;28233;55.748;48.752;2022-10-23T00:40:13;5.93;;;2.30;;
42602;SDS011;28233;55.748;48.752;2022-10-23T00:42:16;5.95;;;2.53;;
42602;SDS011;28233;55.748;48.752;2022-10-23T00:46:23;7.13;;;2.42;;
42602;SDS011;28233;55.748;48.752;2022-10-23T00:48:26;4.10;;;2.20;;
42602;SDS011;28233;55.748;48.752;2022-10-23T00:50:31;4.15;;;1.90;;
42602;SDS011;28233;55.748;48.752;2022-10-23T00:52:34;4.00;;;2.13;;
42602;SDS011;28233;55.748;48.752;2022-10-23T00:54:42;6.78;;;2.67;;
42602;SDS011;28233;55.748;48.752;2022-10-23T00:56:46;5.90;;;2.30;;
42602;SDS011;28233;55.748;48.752;2022-10-23T00:58:49;4.22;;;2.03;;
42602;SDS011;28233;55.748;48.752;2022-10-23T01:00:53;4.50;;;2.08;;
42602;SDS011;28233;55.748;48.752;2022-10-23T01:02:57;4.07;;;2.63;;
42602;SDS011;28233;55.748;48.752;2022-10-23T01:05:00;5.18;;;2.28;;
42602;SDS011;28233;55.748;48.752;2022-10-23T01:10:15;7.38;;;2.63;;
42602;SDS011;28233;55.748;48.752;2022-10-23T01:12:54;5.20;;;2.53;;
42602;SDS011;28233;55.748;48.752;2022-10-23T01:17:24;7.90;;;2.80;;
42602;SDS011;28233;55.748;48.752;2022-10-23T01:22:11;4.47;;;1.98;;
42602;SDS011;28233;55.748;48.752;2022-10-23T01:29:40;6.72;;;2.85;;
42602;SDS011;28233;55.748;48.752;2022-10-23T01:31:48;7.50;;;2.28;;
42602;SDS011;28233;55.748;48.752;2022-10-23T01:33:54;4.07;;;2.25;;
42602;SDS011;28233;55.748;48.752;2022-10-23T01:36:05;5.65;;;2.22;;
42602;SDS011;28233;55.748;48.752;2022-10-23T01:40:29;8.35;;;2.92;;
42602;SDS011;28233;55.748;48.752;2022-10-23T01:42:39;5.88;;;2.65;;
42602;SDS011;28233;55.748;48.752;2022-10-23T01:44:50;6.13;;;2.47;;
42602;SDS011;28233;55.748;48.752;2022-10-23T01:46:59;6.75;;;3.72;;
42602;SDS011;28233;55.748;48.752;2022-10-23T01:49:04;6.13;;;2.55;;
42602;SDS011;28233;55.748;48.752;2022-10-23T01:51:10;4.00;;;2.58;;
42602;SDS011;28233;55.748;48.752;2022-10-23T01:53:17;4.63;;;2.47;;
42602;SDS011;28233;55.748;48.752;2022-10-23T01:55:21;4.78;;;2.65;;
42602;SDS011;28233;55.748;48.752;2022-10-23T01:57:28;4.15;;;2.38;;
42602;SDS011;28233;55.748;48.752;2022-10-23T01:59:33;6.28;;;3.10;;
42602;SDS011;28233;55.748;48.752;2022-10-23T02:01:40;6.38;;;2.58;;
42602;SDS011;28233;55.748;48.752;2022-10-23T02:03:45;8.02;;;2.70;;
42602;SDS011;28233;55.748;48.752;2022-10-23T02:05:49;6.75;;;2.30;;
42602;SDS011;28233;55.748;48.752;2022-10-23T02:07:52;8.85;;;2.95;;
42602;SDS011;28233;55.748;48.752;2022-10-23T02:09:55;13.43;;;3.42;;
42602;SDS011;28233;55.748;48.752;2022-10-23T02:12:03;5.95;;;2.67;;
42602;SDS011;28233;55.748;48.752;2022-10-23T02:14:12;8.60;;;2.92;;
42602;SDS011;28233;55.748;48.752;2022-10-23T02:20:55;12.70;;;3.40;;
42602;SDS011;28233;55.748;48.752;2022-10-23T02:23:05;9.05;;;3.42;;
42602;SDS011;28233;55.748;48.752;2022-10-23T02:25:17;6.85;;;2.50;;
42602;SDS011;28233;55.748;48.752;2022-10-23T02:27:31;4.95;;;2.20;;
42602;SDS011;28233;55.748;48.752;2022-10-23T02:29:44;7.32;;;3.00;;
42602;SDS011;28233;55.748;48.752;2022-10-23T02:31:50;4.80;;;2.50;;
42602;SDS011;28233;55.748;48.752;2022-10-23T02:33:53;5.75;;;2.47;;
42602;SDS011;28233;55.748;48.752;2022-10-23T02:35:56;6.68;;;3.33;;
42602;SDS011;28233;55.748;48.752;2022-10-23T02:37:59;7.03;;;2.88;;
42602;SDS011;28233;55.748;48.752;2022-10-23T02:40:03;5.20;;;2.60;;
42602;SDS011;28233;55.748;48.752;2022-10-23T02:47:08;8.00;;;3.00;;
42602;SDS011;28233;55.748;48.752;2022-10-23T02:51:41;5.47;;;2.90;;
42602;SDS011;28233;55.748;48.752;2022-10-23T02:54:01;7.05;;;3.35;;
42602;SDS011;28233;55.748;48.752;2022-10-23T02:56:31;6.15;;;2.70;;
42602;SDS011;28233;55.748;48.752;2022-10-23T02:58:42;6.00;;;3.10;;
42602;SDS011;28233;55.748;48.752;2022-10-23T03:00:51;9.13;;;3.35;;
42602;SDS011;28233;55.748;48.752;2022-10-23T03:03:05;6.68;;;3.22;;
42602;SDS011;28233;55.748;48.752;2022-10-23T03:05:22;9.15;;;3.08;;
42602;SDS011;28233;55.748;48.752;2022-10-23T03:07:29;5.68;;;3.70;;
42602;SDS011;28233;55.748;48.752;2022-10-23T03:09:31;4.90;;;2.97;;
42602;SDS011;28233;55.748;48.752;2022-10-23T03:11:34;9.75;;;4.00;;
42602;SDS011;28233;55.748;48.752;2022-10-23T03:13:37;8.02;;;4.07;;
42602;SDS011;28233;55.748;48.752;2022-10-23T03:15:40;5.95;;;3.20;;
42602;SDS011;28233;55.748;48.752;2022-10-23T03:17:42;6.85;;;3.38;;
42602;SDS011;28233;55.748;48.752;2022-10-23T03:19:45;7.05;;;3.35;;
42602;SDS011;28233;55.748;48.752;2022-10-23T03:21:48;6.10;;;3.42;;
42602;SDS011;28233;55.748;48.752;2022-10-23T03:23:50;5.93;;;3.20;;
42602;SDS011;28233;55.748;48.752;2022-10-23T03:25:53;5.63;;;3.00;;
42602;SDS011;28233;55.748;48.752;2022-10-23T03:27:57;7.95;;;3.75;;
42602;SDS011;28233;55.748;48.752;2022-10-23T03:29:59;6.65;;;3.75;;
42602;SDS011;28233;55.748;48.752;2022-10-23T03:32:04;6.20;;;3.20;;
42602;SDS011;28233;55.748;48.752;2022-10-23T03:34:06;6.25;;;3.95;;
42602;SDS011;28233;55.748;48.752;2022-10-23T03:36:12;5.78;;;3.15;;
42602;SDS011;28233;55.748;48.752;2022-10-23T03:38:14;6.32;;;3.20;;
42602;SDS011;28233;55.748;48.752;2022-10-23T03:40:17;8.63;;;3.35;;
42602;SDS011;28233;55.748;48.752;2022-10-23T03:42:20;9.82;;;3.42;;
42602;SDS011;28233;55.748;48.752;2022-10-23T03:44:22;5.97;;;3.05;;
42602;SDS011;28233;55.748;48.752;2022-10-23T03:46:25;8.88;;;3.45;;
42602;SDS011;28233;55.748;48.752;2022-10-23T03:48:28;6.22;;;3.55;;
42602;SDS011;28233;55.748;48.752;2022-10-23T03:50:30;5.22;;;2.67;;
42602;SDS011;28233;55.748;48.752;2022-10-23T03:52:33;7.55;;;3.72;;
42602;SDS011;28233;55.748;48.752;2022-10-23T03:54:36;6.13;;;3.42;;
42602;SDS011;28233;55.748;48.752;2022-10-23T03:56:39;7.53;;;3.47;;
42602;SDS011;28233;55.748;48.752;2022-10-23T03:58:42;7.65;;;3.17;;
42602;SDS011;28233;55.748;48.752;2022-10-23T04:00:44;9.35;;;3.38;;
42602;SDS011;28233;55.748;48.752;2022-10-23T04:02:47;10.30;;;3.72;;
42602;SDS011;28233;55.748;48.752;2022-10-23T04:04:50;5.45;;;2.95;;
42602;SDS011;28233;55.748;48.752;2022-10-23T04:06:53;6.15;;;3.30;;
42602;SDS011;28233;55.748;48.752;2022-10-23T04:08:56;5.28;;;2.90;;
42602;SDS011;28233;55.748;48.752;2022-10-23T04:10:58;8.13;;;3.65;;
42602;SDS011;28233;55.748;48.752;2022-10-23T04:13:01;6.25;;;3.25;;
42602;SDS011;28233;55.748;48.752;2022-10-23T04:15:04;4.78;;;3.08;;
42602;SDS011;28233;55.748;48.752;2022-10-23T04:17:07;10.13;;;4.18;;
42602;SDS011;28233;55.748;48.752;2022-10-23T04:19:09;8.18;;;3.08;;
42602;SDS011;28233;55.748;48.752;2022-10-23T04:21:12;7.38;;;3.20;;
42602;SDS011;28233;55.748;48.752;2022-10-23T04:23:15;7.88;;;3.67;;
42602;SDS011;28233;55.748;48.752;2022-10-23T04:25:18;5.28;;;3.42;;
42602;SDS011;28233;55.748;48.752;2022-10-23T04:27:21;9.63;;;3.42;;
42602;SDS011;28233;55.748;48.752;2022-10-23T04:29:24;5.90;;;2.50;;
42602;SDS011;28233;55.748;48.752;2022-10-23T04:31:27;7.25;;;2.78;;
42602;SDS011;28233;55.748;48.752;2022-10-23T04:33:29;8.00;;;3.05;;
42602;SDS011;28233;55.748;48.752;2022-10-23T04:35:32;6.18;;;3.22;;
42602;SDS011;28233;55.748;48.752;2022-10-23T04:37:35;5.85;;;3.05;;
42602;SDS011;28233;55.748;48.752;2022-10-23T04:39:38;7.53;;;2.85;;
42602;SDS011;28233;55.748;48.752;2022-10-23T04:41:40;6.13;;;2.88;;
42602;SDS011;28233;55.748;48.752;2022-10-23T04:43:43;6.93;;;2.67;;
42602;SDS011;28233;55.748;48.752;2022-10-23T04:45:47;7.10;;;3.10;;
42602;SDS011;28233;55.748;48.752;2022-10-23T04:47:50;9.50;;;3.47;;
42602;SDS011;28233;55.748;48.752;2022-10-23T04:49:54;5.35;;;2.95;;
42602;SDS011;28233;55.748;48.752;2022-10-23T04:51:57;6.40;;;2.90;;
42602;SDS011;28233;55.748;48.752;2022-10-23T04:54:00;8.35;;;2.65;;
42602;SDS011;28233;55.748;48.752;2022-10-23T04:56:02;6.10;;;3.03;;
42602;SDS011;28233;55.748;48.752;2022-10-23T04:58:06;5.63;;;2.60;;
42602;SDS011;28233;55.748;48.752;2022-10-23T05:00:08;5.07;;;2.80;;
42602;SDS011;28233;55.748;48.752;2022-10-23T05:02:14;8.05;;;2.65;;
42602;SDS011;28233;55.748;48.752;2022-10-23T05:04:17;6.90;;;2.85;;
42602;SDS011;28233;55.748;48.752;2022-10-23T05:06:19;6.35;;;3.38;;
42602;SDS011;28233;55.748;48.752;2022-10-23T05:08:22;8.50;;;2.75;;
42602;SDS011;28233;55.748;48.752;2022-10-23T05:10:25;6.57;;;3.20;;
42602;SDS011;28233;55.748;48.752;2022-10-23T05:12:28;6.32;;;2.97;;
42602;SDS011;28233;55.748;48.752;2022-10-23T05:14:31;6.88;;;3.05;;
42602;SDS011;28233;55.748;48.752;2022-10-23T05:16:47;4.10;;;1.95;;
42602;SDS011;28233;55.748;48.752;2022-10-23T05:18:55;4.68;;;2.30;;
42602;SDS011;28233;55.748;48.752;2022-10-23T05:21:03;8.25;;;3.35;;
42602;SDS011;28233;55.748;48.752;2022-10-23T05:23:10;5.40;;;3.05;;
42602;SDS011;28233;55.748;48.752;2022-10-23T05:25:16;7.60;;;3.35;;
42602;SDS011;28233;55.748;48.752;2022-10-23T05:27:18;4.63;;;2.33;;
42602;SDS011;28233;55.748;48.752;2022-10-23T05:29:21;7.82;;;3.83;;
42602;SDS011;28233;55.748;48.752;2022-10-23T05:31:24;4.57;;;2.92;;
42602;SDS011;28233;55.748;48.752;2022-10-23T05:33:27;6.50;;;3.30;;
42602;SDS011;28233;55.748;48.752;2022-10-23T05:35:31;5.07;;;2.78;;
42602;SDS011;28233;55.748;48.752;2022-10-23T05:37:35;6.15;;;2.88;;
42602;SDS011;28233;55.748;48.752;2022-10-23T05:39:39;9.55;;;3.78;;
42602;SDS011;28233;55.748;48.752;2022-10-23T05:41:42;7.00;;;3.58;;
42602;SDS011;28233;55.748;48.752;2022-10-23T05:43:45;4.95;;;2.65;;
42602;SDS011;28233;55.748;48.752;2022-10-23T05:45:47;11.05;;;3.83;;
42602;SDS011;28233;55.748;48.752;2022-10-23T05:47:50;10.90;;;4.07;;
42602;SDS011;28233;55.748;48.752;2022-10-23T05:49:56;5.75;;;2.90;;
42602;SDS011;28233;55.748;48.752;2022-10-23T05:51:58;8.32;;;2.95;;
42602;SDS011;28233;55.748;48.752;2022-10-23T05:54:01;5.13;;;2.50;;
42602;SDS011;28233;55.748;48.752;2022-10-23T05:56:05;6.75;;;2.97;;
42602;SDS011;28233;55.748;48.752;2022-10-23T05:58:08;5.97;;;2.83;;
42602;SDS011;28233;55.748;48.752;2022-10-23T06:00:11;12.50;;;4.07;;
42602;SDS011;28233;55.748;48.752;2022-10-23T06:02:14;5.60;;;3.13;;
42602;SDS011;28233;55.748;48.752;2022-10-23T06:04:17;5.90;;;2.90;;
42602;SDS011;28233;55.748;48.752;2022-10-23T06:06:20;5.88;;;3.15;;
42602;SDS011;28233;55.748;48.752;2022-10-23T06:08:22;7.55;;;3.33;;
42602;SDS011;28233;55.748;48.752;2022-10-23T06:10:25;6.72;;;2.97;;
42602;SDS011;28233;55.748;48.752;2022-10-23T06:12:29;4.95;;;2.25;;
42602;SDS011;28233;55.748;48.752;2022-10-23T06:14:33;4.72;;;2.78;;
42602;SDS011;28233;55.748;48.752;2022-10-23T06:16:35;9.15;;;2.85;;
42602;SDS011;28233;55.748;48.752;2022-10-23T06:18:38;5.13;;;3.10;;
42602;SDS011;28233;55.748;48.752;2022-10-23T06:20:41;6.43;;;3.05;;
42602;SDS011;28233;55.748;48.752;2022-10-23T06:22:44;9.65;;;2.80;;
42602;SDS011;28233;55.748;48.752;2022-10-23T06:24:47;5.03;;;2.38;;
42602;SDS011;28233;55.748;48.752;2022-10-23T06:26:49;3.90;;;2.22;;
42602;SDS011;28233;55.748;48.752;2022-10-23T06:28:52;5.10;;;2.30;;
42602;SDS011;28233;55.748;48.752;2022-10-23T06:30:55;4.65;;;2.10;;
42602;SDS011;28233;55.748;48.752;2022-10-23T06:32:57;4.47;;;2.78;;
42602;SDS011;28233;55.748;48.752;2022-10-23T06:35:05;5.60;;;2.50;;
42602;SDS011;28233;55.748;48.752;2022-10-23T06:37:08;5.43;;;1.88;;
42602;SDS011;28233;55.748;48.752;2022-10-23T06:39:11;6.57;;;1.80;;
42602;SDS011;28233;55.748;48.752;2022-10-23T06:41:15;4.13;;;2.35;;
42602;SDS011;28233;55.748;48.752;2022-10-23T06:43:19;4.38;;;1.85;;
42602;SDS011;28233;55.748;48.752;2022-10-23T06:45:21;5.15;;;2.65;;
42602;SDS011;28233;55.748;48.752;2022-10-23T06:47:24;3.30;;;1.85;;
42602;SDS011;28233;55.748;48.752;2022-10-23T06:49:27;5.22;;;1.98;;
42602;SDS011;28233;55.748;48.752;2022-10-23T06:51:29;8.98;;;2.25;;
42602;SDS011;28233;55.748;48.752;2022-10-23T06:53:32;5.50;;;1.85;;
42602;SDS011;28233;55.748;48.752;2022-10-23T06:55:35;4.38;;;1.60;;
42602;SDS011;28233;55.748;48.752;2022-10-23T06:57:38;2.83;;;1.45;;
42602;SDS011;28233;55.748;48.752;2022-10-23T06:59:41;2.40;;;1.52;;
42602;SDS011;28233;55.748;48.752;2022-10-23T07:01:44;3.92;;;1.85;;
42602;SDS011;28233;55.748;48.752;2022-10-23T07:03:47;5.00;;;1.60;;
42602;SDS011;28233;55.748;48.752;2022-10-23T07:05:50;6.07;;;2.28;;
42602;SDS011;28233;55.748;48.752;2022-10-23T07:07:53;3.55;;;1.85;;
42602;SDS011;28233;55.748;48.752;2022-10-23T07:09:55;3.97;;;1.52;;
42602;SDS011;28233;55.748;48.752;2022-10-23T07:11:58;3.67;;;2.05;;
42602;SDS011;28233;55.748;48.752;2022-10-23T07:14:00;5.47;;;1.80;;
42602;SDS011;28233;55.748;48.752;2022-10-23T07:16:10;2.22;;;1.30;;
42602;SDS011;28233;55.748;48.752;2022-10-23T07:18:15;3.47;;;1.70;;
42602;SDS011;28233;55.748;48.752;2022-10-23T07:20:18;4.30;;;1.60;;
42602;SDS011;28233;55.748;48.752;2022-10-23T07:22:20;5.25;;;1.80;;
42602;SDS011;28233;55.748;48.752;2022-10-23T07:24:23;5.35;;;1.40;;
42602;SDS011;28233;55.748;48.752;2022-10-23T07:26:26;2.75;;;1.60;;
42602;SDS011;28233;55.748;48.752;2022-10-23T07:28:29;3.70;;;2.33;;
42602;SDS011;28233;55.748;48.752;2022-10-23T07:30:32;4.13;;;1.80;;
42602;SDS011;28233;55.748;48.752;2022-10-23T07:32:35;4.57;;;1.85;;
42602;SDS011;28233;55.748;48.752;2022-10-23T07:34:37;7.10;;;2.10;;
42602;SDS011;28233;55.748;48.752;2022-10-23T07:36:40;4.28;;;2.28;;
42602;SDS011;28233;55.748;48.752;2022-10-23T07:38:43;6.22;;;2.22;;
42602;SDS011;28233;55.748;48.752;2022-10-23T07:40:46;6.72;;;1.73;;
42602;SDS011;28233;55.748;48.752;2022-10-23T07:42:50;4.15;;;1.50;;
42602;SDS011;28233;55.748;48.752;2022-10-23T07:44:55;4.00;;;1.55;;
42602;SDS011;28233;55.748;48.752;2022-10-23T07:46:58;4.40;;;1.88;;
42602;SDS011;28233;55.748;48.752;2022-10-23T07:49:01;4.93;;;2.05;;
42602;SDS011;28233;55.748;48.752;2022-10-23T07:51:10;4.00;;;2.15;;
42602;SDS011;28233;55.748;48.752;2022-10-23T07:53:18;5.72;;;2.63;;
42602;SDS011;28233;55.748;48.752;2022-10-23T07:55:22;4.93;;;2.13;;
42602;SDS011;28233;55.748;48.752;2022-10-23T07:57:25;3.92;;;2.05;;
42602;SDS011;28233;55.748;48.752;2022-10-23T07:59:28;7.28;;;3.45;;
42602;SDS011;28233;55.748;48.752;2022-10-23T08:01:36;3.50;;;1.88;;
42602;SDS011;28233;55.748;48.752;2022-10-23T08:03:40;3.58;;;1.75;;
42602;SDS011;28233;55.748;48.752;2022-10-23T08:05:42;6.40;;;2.10;;
42602;SDS011;28233;55.748;48.752;2022-10-23T08:07:46;4.10;;;2.00;;
42602;SDS011;28233;55.748;48.752;2022-10-23T08:09:49;4.55;;;1.85;;
42602;SDS011;28233;55.748;48.752;2022-10-23T08:11:51;4.30;;;1.80;;
42602;SDS011;28233;55.748;48.752;2022-10-23T08:13:55;5.03;;;2.28;;
42602;SDS011;28233;55.748;48.752;2022-10-23T08:15:58;5.15;;;2.00;;
42602;SDS011;28233;55.748;48.752;2022-10-23T08:18:01;8.45;;;2.15;;
42602;SDS011;28233;55.748;48.752;2022-10-23T08:20:04;5.20;;;2.38;;
42602;SDS011;28233;55.748;48.752;2022-10-23T08:22:07;3.28;;;1.77;;
42602;SDS011;28233;55.748;48.752;2022-10-23T08:24:10;4.28;;;1.98;;
42602;SDS011;28233;55.748;48.752;2022-10-23T08:26:16;5.93;;;1.65;;
42602;SDS011;28233;55.748;48.752;2022-10-23T08:28:18;4.65;;;1.40;;
42602;SDS011;28233;55.748;48.752;2022-10-23T08:30:21;4.15;;;2.42;;
42602;SDS011;28233;55.748;48.752;2022-10-23T08:32:27;3.33;;;1.67;;
42602;SDS011;28233;55.748;48.752;2022-10-23T08:34:31;4.22;;;2.08;;
42602;SDS011;28233;55.748;48.752;2022-10-23T08:36:34;5.60;;;2.20;;
42602;SDS011;28233;55.748;48.752;2022-10-23T08:38:37;5.03;;;1.67;;
42602;SDS011;28233;55.748;48.752;2022-10-23T08:40:44;4.63;;;1.75;;
42602;SDS011;28233;55.748;48.752;2022-10-23T08:42:52;7.43;;;1.90;;
42602;SDS011;28233;55.748;48.752;2022-10-23T08:45:06;4.40;;;1.50;;
42602;SDS011;28233;55.748;48.752;2022-10-23T08:47:17;3.97;;;1.65;;
42602;SDS011;28233;55.748;48.752;2022-10-23T08:51:48;2.45;;;1.70;;
42602;SDS011;28233;55.748;48.752;2022-10-23T08:54:01;4.20;;;1.85;;
42602;SDS011;28233;55.748;48.752;2022-10-23T08:56:11;4.90;;;2.13;;
42602;SDS011;28233;55.748;48.752;2022-10-23T08:58:22;3.90;;;2.38;;
42602;SDS011;28233;55.748;48.752;2022-10-23T09:00:31;5.47;;;1.85;;
42602;SDS011;28233;55.748;48.752;2022-10-23T09:02:37;7.50;;;2.40;;
42602;SDS011;28233;55.748;48.752;2022-10-23T09:04:45;7.22;;;2.30;;
42602;SDS011;28233;55.748;48.752;2022-10-23T09:11:39;2.17;;;1.60;;
42602;SDS011;28233;55.748;48.752;2022-10-23T09:18:54;3.38;;;2.03;;
42602;SDS011;28233;55.748;48.752;2022-10-23T09:20:58;4.75;;;2.75;;
42602;SDS011;28233;55.748;48.752;2022-10-23T09:23:20;3.88;;;1.80;;
42602;SDS011;28233;55.748;48.752;2022-10-23T09:25:26;6.88;;;1.88;;
42602;SDS011;28233;55.748;48.752;2022-10-23T09:27:31;5.95;;;2.30;;
42602;SDS011;28233;55.748;48.752;2022-10-23T09:29:34;3.78;;;1.95;;
42602;SDS011;28233;55.748;48.752;2022-10-23T09:31:46;6.22;;;2.33;;
42602;SDS011;28233;55.748;48.752;2022-10-23T09:33:56;4.57;;;1.98;;
42602;SDS011;28233;55.748;48.752;2022-10-23T09:36:06;4.03;;;2.20;;
42602;SDS011;28233;55.748;48.752;2022-10-23T09:38:28;5.65;;;2.50;;
42602;SDS011;28233;55.748;48.752;2022-10-23T09:40:37;4.50;;;2.53;;
42602;SDS011;28233;55.748;48.752;2022-10-23T09:42:53;5.95;;;2.75;;
42602;SDS011;28233;55.748;48.752;2022-10-23T09:44:57;5.10;;;2.42;;
42602;SDS011;28233;55.748;48.752;2022-10-23T09:49:16;6.70;;;2.80;;
42602;SDS011;28233;55.748;48.752;2022-10-23T09:51:20;4.88;;;2.75;;
42602;SDS011;28233;55.748;48.752;2022-10-23T09:53:33;3.88;;;2.22;;
42602;SDS011;28233;55.748;48.752;2022-10-23T09:55:40;8.50;;;2.50;;
42602;SDS011;28233;55.748;48.752;2022-10-23T09:57:43;7.63;;;2.42;;
42602;SDS011;28233;55.748;48.752;2022-10-23T09:59:51;5.88;;;2.58;;
42602;SDS011;28233;55.748;48.752;2022-10-23T10:01:56;4.00;;;2.58;;
42602;SDS011;28233;55.748;48.752;2022-10-23T10:04:01;6.75;;;3.00;;
42602;SDS011;28233;55.748;48.752;2022-10-23T10:06:04;7.32;;;3.30;;
42602;SDS011;28233;55.748;48.752;2022-10-23T10:10:21;6.40;;;3.33;;
42602;SDS011;28233;55.748;48.752;2022-10-23T10:24:07;7.82;;;4.03;;
42602;SDS011;28233;55.748;48.752;2022-10-23T10:26:32;9.30;;;3.95;;
42602;SDS011;28233;55.748;48.752;2022-10-23T10:35:51;8.23;;;4.55;;
42602;SDS011;28233;55.748;48.752;2022-10-23T10:40:49;9.23;;;4.72;;
42602;SDS011;28233;55.748;48.752;2022-10-23T10:43:13;8.98;;;4.57;;
42602;SDS011;28233;55.748;48.752;2022-10-23T10:45:46;20.50;;;5.43;;
42602;SDS011;28233;55.748;48.752;2022-10-23T10:55:41;15.70;;;6.80;;
42602;SDS011;28233;55.748;48.752;2022-10-23T10:57:51;12.75;;;6.47;;
42602;SDS011;28233;55.748;48.752;2022-10-23T11:00:05;15.63;;;7.07;;
42602;SDS011;28233;55.748;48.752;2022-10-23T11:04:53;19.92;;;7.93;;
42602;SDS011;28233;55.748;48.752;2022-10-23T11:06:58;18.70;;;8.30;;
42602;SDS011;28233;55.748;48.752;2022-10-23T11:09:13;20.70;;;8.75;;
42602;SDS011;28233;55.748;48.752;2022-10-23T11:11:32;16.92;;;8.32;;
42602;SDS011;28233;55.748;48.752;2022-10-23T11:13:39;22.58;;;9.25;;
42602;SDS011;28233;55.748;48.752;2022-10-23T11:15:43;17.25;;;8.10;;
42602;SDS011;28233;55.748;48.752;2022-10-23T11:17:47;13.93;;;7.93;;
42602;SDS011;28233;55.748;48.752;2022-10-23T11:19:57;16.67;;;7.80;;
42602;SDS011;28233;55.748;48.752;2022-10-23T11:24:41;13.55;;;6.53;;
42602;SDS011;28233;55.748;48.752;2022-10-23T11:34:02;12.65;;;6.90;;
42602;SDS011;28233;55.748;48.752;2022-10-23T11:39:26;14.75;;;7.25;;
42602;SDS011;28233;55.748;48.752;2022-10-23T11:41:31;11.23;;;6.05;;
42602;SDS011;28233;55.748;48.752;2022-10-23T11:44:21;11.88;;;5.95;;
42602;SDS011;28233;55.748;48.752;2022-10-23T11:46:12;15.15;;;6.07;;
42602;SDS011;28233;55.748;48.752;2022-10-23T11:48:40;16.98;;;6.22;;
42602;SDS011;28233;55.748;48.752;2022-10-23T11:52:54;11.38;;;5.88;;
42602;SDS011;28233;55.748;48.752;2022-10-23T11:55:22;12.90;;;5.97;;
42602;SDS011;28233;55.748;48.752;2022-10-23T11:57:29;11.10;;;5.97;;
42602;SDS011;28233;55.748;48.752;2022-10-23T12:01:42;14.25;;;6.65;;
42602;SDS011;28233;55.748;48.752;2022-10-23T12:04:37;9.80;;;5.95;;
42602;SDS011;28233;55.748;48.752;2022-10-23T12:06:19;14.00;;;6.50;;
42602;SDS011;28233;55.748;48.752;2022-10-23T12:08:27;14.00;;;6.60;;
42602;SDS011;28233;55.748;48.752;2022-10-23T12:10:33;12.82;;;7.10;;
42602;SDS011;28233;55.748;48.752;2022-10-23T12:12:37;12.70;;;6.13;;
42602;SDS011;28233;55.748;48.752;2022-10-23T12:14:46;14.93;;;6.97;;
42602;SDS011;28233;55.748;48.752;2022-10-23T12:16:50;16.20;;;7.78;;
42602;SDS011;28233;55.748;48.752;2022-10-23T12:18:53;13.35;;;6.95;;
42602;SDS011;28233;55.748;48.752;2022-10-23T12:20:57;15.77;;;6.82;;
42602;SDS011;28233;55.748;48.752;2022-10-23T12:23:12;13.55;;;7.10;;
42602;SDS011;28233;55.748;48.752;2022-10-23T12:28:05;12.07;;;7.88;;
42602;SDS011;28233;55.748;48.752;2022-10-23T12:30:22;14.35;;;6.78;;
42602;SDS011;28233;55.748;48.752;2022-10-23T12:39:55;14.13;;;7.18;;
42602;SDS011;28233;55.748;48.752;2022-10-23T12:42:00;12.75;;;7.32;;
42602;SDS011;28233;55.748;48.752;2022-10-23T12:44:03;13.82;;;6.93;;
42602;SDS011;28233;55.748;48.752;2022-10-23T12:48:26;17.55;;;7.75;;
42602;SDS011;28233;55.748;48.752;2022-10-23T12:50:32;15.98;;;7.75;;
42602;SDS011;28233;55.748;48.752;2022-10-23T12:52:35;12.90;;;7.10;;
42602;SDS011;28233;55.748;48.752;2022-10-23T12:54:41;16.65;;;7.45;;
42602;SDS011;28233;55.748;48.752;2022-10-23T12:56:44;13.02;;;7.43;;
42602;SDS011;28233;55.748;48.752;2022-10-23T12:58:48;13.57;;;7.25;;
42602;SDS011;28233;55.748;48.752;2022-10-23T13:00:55;11.60;;;6.82;;
42602;SDS011;28233;55.748;48.752;2022-10-23T13:03:01;14.43;;;7.75;;
42602;SDS011;28233;55.748;48.752;2022-10-23T13:05:05;15.82;;;6.88;;
42602;SDS011;28233;55.748;48.752;2022-10-23T13:07:10;10.50;;;7.07;;
42602;SDS011;28233;55.748;48.752;2022-10-23T13:09:17;11.55;;;6.50;;
42602;SDS011;28233;55.748;48.752;2022-10-23T13:11:25;14.20;;;7.40;;
42602;SDS011;28233;55.748;48.752;2022-10-23T13:13:29;13.27;;;6.95;;
42602;SDS011;28233;55.748;48.752;2022-10-23T13:15:38;12.77;;;6.88;;
42602;SDS011;28233;55.748;48.752;2022-10-23T13:17:44;18.57;;;7.57;;
42602;SDS011;28233;55.748;48.752;2022-10-23T13:19:48;17.58;;;7.30;;
42602;SDS011;28233;55.748;48.752;2022-10-23T13:21:51;16.02;;;7.00;;
42602;SDS011;28233;55.748;48.752;2022-10-23T13:23:54;12.63;;;6.82;;
42602;SDS011;28233;55.748;48.752;2022-10-23T13:26:02;12.52;;;7.53;;
42602;SDS011;28233;55.748;48.752;2022-10-23T13:28:26;15.43;;;6.80;;
42602;SDS011;28233;55.748;48.752;2022-10-23T13:30:40;17.67;;;7.18;;
42602;SDS011;28233;55.748;48.752;2022-10-23T13:32:47;13.13;;;7.57;;
42602;SDS011;28233;55.748;48.752;2022-10-23T13:34:53;14.45;;;6.78;;
42602;SDS011;28233;55.748;48.752;2022-10-23T13:37:27;15.15;;;7.63;;
42602;SDS011;28233;55.748;48.752;2022-10-23T13:39:32;13.40;;;7.60;;
42602;SDS011;28233;55.748;48.752;2022-10-23T13:41:42;11.88;;;6.40;;
42602;SDS011;28233;55.748;48.752;2022-10-23T13:43:47;13.57;;;7.55;;
42602;SDS011;28233;55.748;48.752;2022-10-23T13:45:50;17.95;;;6.80;;
42602;SDS011;28233;55.748;48.752;2022-10-23T13:47:52;11.00;;;6.32;;
42602;SDS011;28233;55.748;48.752;2022-10-23T13:49:55;12.27;;;6.70;;
42602;SDS011;28233;55.748;48.752;2022-10-23T13:51:58;14.10;;;6.25;;
42602;SDS011;28233;55.748;48.752;2022-10-23T13:54:00;10.65;;;5.93;;
42602;SDS011;28233;55.748;48.752;2022-10-23T13:56:03;14.35;;;6.30;;
42602;SDS011;28233;55.748;48.752;2022-10-23T13:58:07;13.48;;;6.40;;
42602;SDS011;28233;55.748;48.752;2022-10-23T14:00:10;13.20;;;5.97;;
42602;SDS011;28233;55.748;48.752;2022-10-23T14:02:17;14.43;;;6.30;;
42602;SDS011;28233;55.748;48.752;2022-10-23T14:04:21;10.63;;;6.05;;
42602;SDS011;28233;55.748;48.752;2022-10-23T14:06:25;12.20;;;6.15;;
42602;SDS011;28233;55.748;48.752;2022-10-23T14:08:27;11.43;;;6.15;;
42602;SDS011;28233;55.748;48.752;2022-10-23T14:10:30;11.57;;;5.90;;
42602;SDS011;28233;55.748;48.752;2022-10-23T14:12:39;12.02;;;5.47;;